Last 24 Hours

Pinyon

10 Minute Data | America/Los_Angeles
as of 8/31/26 10:45 AM PDT
Date & Time Temp (°F) Dew Pt (°F) RH (%) Wind Spd (mph) Wind Dir (°) Wind Gust (mph) Wind Gst Dir (°) Daily Max Temp (°F) Daily Min Temp (°F)
8/31/26 - 1040 79.5 43.9 28 13.1 NW | 325 21.7 NW | 313 80.2 69.9
8/31/26 - 1030 79.1 42.6 27 12.8 NNW | 334 22.1 NNW | 332 79.5 69.9
8/31/26 - 1020 78.9 41.6 26 11.2 NNW | 339 20.0 N | 353 79.5 69.9
8/31/26 - 1010 78.2 41.6 27 12.8 NNW | 334 21.0 NNW | 331 78.5 69.9
8/31/26 - 1000 77.8 41.0 27 12.1 NNW | 333 21.0 NNW | 341 78.4 69.9
8/31/26 - 0950 77.7 41.1 27 11.7 NNW | 327 17.9 N | 351 78.4 69.9
8/31/26 - 0940 76.8 42.4 29 13.0 NNW | 344 21.0 NNW | 335 77.1 69.9
8/31/26 - 0930 76.4 42.4 30 13.9 NNW | 330 22.0 NNW | 331 76.9 69.9
8/31/26 - 0920 75.9 42.5 30 15.0 NNW | 333 22.6 NNW | 340 76.2 69.9
8/31/26 - 0910 75.8 42.4 30 14.2 NNW | 332 20.9 NNW | 329 76.2 69.9
8/31/26 - 0900 75.0 40.6 29 16.1 NNW | 332 23.4 NNW | 336 75.2 69.9
8/31/26 - 0850 74.6 40.4 29 14.8 NNW | 337 22.8 NNW | 329 75.2 69.9
8/31/26 - 0840 74.3 39.6 28 15.8 NNW | 335 23.1 NNW | 338 74.5 69.9
8/31/26 - 0830 74.2 38.4 27 15.5 NNW | 335 24.0 NW | 326 74.5 69.9
8/31/26 - 0820 73.8 37.6 27 15.1 NNW | 332 22.6 NW | 324 73.9 69.9
8/31/26 - 0810 73.6 35.9 25 15.3 NNW | 335 22.1 NNW | 339 73.8 69.9
8/31/26 - 0800 73.2 35.0 25 14.5 NNW | 332 21.8 NW | 324 73.4 69.9
8/31/26 - 0750 72.8 33.8 24 16.2 NNW | 331 22.5 NNW | 345 73.0 69.9
8/31/26 - 0740 72.5 31.1 22 14.4 NNW | 330 21.5 NNW | 331 72.7 69.9
8/31/26 - 0730 72.0 29.5 21 14.1 NNW | 329 21.0 NW | 326 72.3 69.9
8/31/26 - 0720 71.5 27.7 19 14.2 NNW | 332 21.7 NNW | 341 72.0 69.9
8/31/26 - 0710 71.0 28.1 20 16.6 NNW | 332 24.8 NNW | 335 72.0 69.9
8/31/26 - 0700 70.6 28.3 21 17.0 NNW | 334 25.1 NNW | 333 72.0 69.9
8/31/26 - 0650 70.4 27.7 20 18.4 NNW | 334 25.1 NNW | 330 72.0 69.9
8/31/26 - 0640 70.5 28.2 21 18.8 NNW | 334 25.6 NNW | 330 72.0 69.9
8/31/26 - 0630 70.4 28.4 21 18.4 NNW | 334 26.7 NW | 322 72.0 69.9
8/31/26 - 0620 70.3 26.6 19 17.6 NNW | 337 24.2 NNW | 330 72.0 69.9
8/31/26 - 0610 70.5 26.5 19 17.9 NNW | 336 25.1 NNW | 345 72.0 69.9
8/31/26 - 0600 70.4 25.4 18 19.1 NNW | 331 26.4 NW | 324 72.0 69.9
8/31/26 - 0550 70.2 23.0 17 20.7 NNW | 332 27.9 NNW | 344 72.0 69.9
8/31/26 - 0540 70.3 21.6 16 21.1 NNW | 332 28.0 NNW | 333 72.0 70.1
8/31/26 - 0530 70.5 22.5 16 21.6 NNW | 332 28.6 NNW | 335 72.0 70.2
8/31/26 - 0520 70.5 24.0 17 21.6 NNW | 331 29.1 NNW | 331 72.0 70.2
8/31/26 - 0510 70.6 26.5 19 20.5 NNW | 332 28.4 NNW | 337 72.0 70.2
8/31/26 - 0500 70.7 30.6 23 19.4 NNW | 333 26.7 NNW | 342 72.0 70.5
8/31/26 - 0450 71.1 32.8 24 18.7 NNW | 334 24.3 NW | 325 72.0 70.5
8/31/26 - 0440 70.8 32.6 24 18.7 NNW | 336 25.9 NNW | 344 72.0 70.5
8/31/26 - 0430 70.9 32.8 24 19.1 NNW | 336 25.9 NNW | 338 72.0 70.5
8/31/26 - 0420 70.9 33.7 25 19.6 NNW | 337 25.2 NNW | 328 72.0 70.5
8/31/26 - 0410 71.0 34.2 26 19.3 NNW | 343 26.2 NNW | 345 72.0 70.5
8/31/26 - 0400 71.2 34.8 26 20.7 NNW | 343 29.3 NNW | 337 72.0 70.5
8/31/26 - 0350 71.0 35.0 27 20.6 NNW | 341 29.2 NNW | 345 72.0 70.5
8/31/26 - 0340 71.0 35.2 27 20.9 NNW | 341 28.4 NNW | 337 72.0 70.5
8/31/26 - 0330 71.0 35.6 27 20.3 NNW | 342 28.2 N | 349 72.0 70.5
8/31/26 - 0320 71.1 35.9 27 21.8 NNW | 340 29.4 NNW | 332 72.0 70.5
8/31/26 - 0310 71.1 36.4 28 22.3 NNW | 340 30.0 NNW | 336 72.0 70.5
8/31/26 - 0300 70.6 37.0 29 21.0 NNW | 337 28.6 NNW | 342 72.0 70.5
8/31/26 - 0250 70.9 37.2 29 19.7 NNW | 336 29.9 NNW | 344 72.0 70.5
8/31/26 - 0240 70.9 36.5 28 19.2 NNW | 333 28.7 NW | 326 72.0 70.7
8/31/26 - 0230 71.0 35.6 27 17.5 NNW | 332 25.1 NNW | 331 72.0 71.0
8/31/26 - 0220 71.0 36.6 28 16.4 NNW | 335 24.2 NNW | 336 72.0 71.0
8/31/26 - 0210 71.3 38.1 30 16.4 NNW | 337 23.5 NNW | 341 72.0 71.2
8/31/26 - 0200 71.6 38.4 30 15.3 NNW | 338 23.0 N | 351 72.0 71.3
8/31/26 - 0150 71.7 38.8 30 15.7 NNW | 341 21.5 NNW | 337 72.0 71.6
8/31/26 - 0140 71.8 38.9 30 17.0 NNW | 341 24.0 NNW | 335 72.0 71.8
8/31/26 - 0130 72.0 39.4 31 15.9 NNW | 338 21.0 NNW | 331 72.0 71.8
8/31/26 - 0120 71.9 39.6 31 15.9 NNW | 337 22.4 NNW | 336 72.0 71.8
8/31/26 - 0110 71.8 39.7 31 16.9 NNW | 340 25.1 NNW | 340 71.9 71.8
8/31/26 - 0100 71.9 40.0 31 17.2 NNW | 342 24.5 NNW | 332 88.0 71.4
8/31/26 - 0050 72.1 40.2 32 18.5 NNW | 344 25.5 NNW | 338 88.0 71.4
8/31/26 - 0040 72.6 40.6 31 20.3 NNW | 343 27.6 N | 354 88.0 71.4
8/31/26 - 0030 72.7 40.8 32 20.5 NNW | 339 28.6 NNW | 334 88.0 71.4
8/31/26 - 0020 72.7 41.0 32 20.0 NNW | 339 29.6 NNW | 338 88.0 71.4
8/31/26 - 0010 72.8 41.3 32 19.7 NNW | 342 27.6 NNW | 332 88.0 71.4
8/31/26 - 0000 72.5 41.8 33 19.4 NNW | 342 27.4 NNW | 348 88.0 71.4
8/30/26 - 2350 72.5 42.4 34 19.7 NNW | 338 26.9 NNW | 340 88.0 71.4
8/30/26 - 2340 72.5 42.5 34 20.8 NNW | 339 30.2 NNW | 342 88.0 71.4
8/30/26 - 2330 72.6 43.6 35 21.2 NNW | 340 28.9 NNW | 330 88.0 71.4
8/30/26 - 2320 72.4 47.4 41 21.2 NNW | 340 30.8 NNW | 338 88.0 71.4
8/30/26 - 2310 72.6 47.7 41 20.2 NNW | 342 27.6 NNW | 334 88.0 71.4
8/30/26 - 2300 72.7 46.7 40 22.1 NNW | 347 29.7 N | 349 88.0 71.4
8/30/26 - 2250 73.1 44.5 36 20.6 NNW | 343 28.0 NNW | 340 88.0 71.4
8/30/26 - 2240 73.0 43.4 34 20.1 NNW | 342 27.2 NNW | 341 88.0 71.4
8/30/26 - 2230 73.1 44.3 36 21.7 NNW | 348 30.2 N | 354 88.0 71.4
8/30/26 - 2220 73.0 45.0 37 22.1 NNW | 346 31.6 N | 352 88.0 71.4
8/30/26 - 2210 73.2 44.1 35 22.7 NNW | 346 29.1 N | 353 88.0 71.4
8/30/26 - 2200 73.1 43.0 34 22.2 NNW | 344 30.7 NNW | 346 88.0 71.4
8/30/26 - 2150 73.0 41.7 32 21.0 NNW | 342 27.8 NNW | 341 88.0 71.4
8/30/26 - 2140 73.1 40.0 30 20.5 NNW | 340 26.4 NNW | 332 88.0 71.4
8/30/26 - 2130 73.2 39.1 29 19.8 NNW | 336 26.2 NNW | 345 88.0 71.4
8/30/26 - 2120 73.6 39.8 29 19.9 NNW | 336 26.0 NNW | 328 88.0 71.4
8/30/26 - 2110 73.9 39.7 29 20.5 NNW | 335 26.1 NNW | 338 88.0 71.4
8/30/26 - 2100 74.0 38.7 28 21.3 NNW | 335 27.0 NNW | 347 88.0 71.4
8/30/26 - 2050 74.1 39.2 28 22.0 NNW | 338 27.7 NNW | 329 88.0 71.4
8/30/26 - 2040 74.2 40.0 29 21.5 NNW | 339 27.2 NNW | 328 88.0 71.4
8/30/26 - 2030 74.2 40.1 29 22.0 NNW | 340 29.7 NNW | 344 88.0 71.4
8/30/26 - 2020 74.6 40.1 29 21.4 NNW | 342 29.7 NNW | 340 88.0 71.4
8/30/26 - 2010 74.9 39.9 28 20.5 NNW | 341 27.2 NNW | 343 88.0 71.4
8/30/26 - 2000 75.3 38.9 27 19.8 NNW | 336 26.8 NNW | 329 88.0 71.4
8/30/26 - 1950 75.5 39.9 28 17.7 NNW | 331 23.8 NNW | 339 88.0 71.4
8/30/26 - 1940 75.9 40.6 28 16.0 NNW | 328 22.9 NNW | 330 88.0 71.4
8/30/26 - 1930 76.3 41.3 28 14.9 NW | 323 23.0 NW | 318 88.0 71.4
8/30/26 - 1920 76.9 42.0 29 14.2 NW | 322 20.7 NW | 321 88.0 71.4
8/30/26 - 1910 77.5 42.2 28 13.2 NW | 318 22.3 NW | 316 88.0 71.4
8/30/26 - 1900 78.5 41.8 27 13.4 NW | 319 23.2 NW | 310 88.0 71.4
8/30/26 - 1850 79.3 42.5 27 12.8 NW | 317 21.0 NW | 314 88.0 71.4
8/30/26 - 1840 80.1 43.2 27 14.5 NW | 325 22.5 NNW | 332 88.0 71.4
8/30/26 - 1830 81.1 43.4 26 13.6 NNW | 332 19.4 N | 6 88.0 71.4
8/30/26 - 1820 81.4 43.4 26 14.5 NNW | 339 20.6 NNW | 339 88.0 71.4
8/30/26 - 1810 82.2 44.6 27 15.4 NNW | 337 24.7 NNW | 336 88.0 71.4
8/30/26 - 1800 82.9 45.1 27 14.0 NNW | 346 21.9 NNW | 340 88.0 71.4
8/30/26 - 1750 82.9 45.8 27 17.0 NNW | 347 25.4 NNW | 347 88.0 71.4
8/30/26 - 1740 84.1 46.6 27 15.4 N | 355 24.1 N | 8 88.0 71.4
8/30/26 - 1730 84.5 46.8 27 14.4 NNW | 344 23.1 NNW | 337 88.0 71.4
8/30/26 - 1720 84.3 47.0 27 15.4 N | 350 24.0 NNW | 342 88.0 71.4
8/30/26 - 1710 84.9 47.3 27 15.8 N | 350 23.8 NNW | 342 88.0 71.4
8/30/26 - 1700 84.9 47.2 27 14.4 NNW | 347 24.0 NNW | 335 88.0 71.4
8/30/26 - 1650 85.2 47.1 27 15.0 NNW | 335 25.6 NNW | 331 88.0 71.4
8/30/26 - 1640 85.5 47.3 27 15.3 NNW | 332 24.2 NNW | 332 88.0 71.4
8/30/26 - 1630 86.0 48.0 27 14.8 NNW | 328 23.8 NNW | 330 88.0 71.4
8/30/26 - 1620 86.8 48.5 27 12.4 NNW | 327 20.0 NNW | 338 88.0 71.4
8/30/26 - 1610 86.3 48.8 27 12.5 NW | 322 22.3 NNW | 334 88.0 71.4
8/30/26 - 1600 86.5 48.6 27 10.6 NNW | 341 18.0 N | 349 88.0 71.4
8/30/26 - 1550 86.7 49.0 27 9.0 NNW | 337 20.4 N | 354 88.0 71.4
8/30/26 - 1540 87.0 49.6 28 8.6 NNW | 334 19.9 NNW | 340 88.0 71.4
8/30/26 - 1530 86.7 50.2 28 9.2 N | 357 17.3 N | 354 88.0 71.4
8/30/26 - 1520 85.3 54.4 35 2.5 ESE | 114 8.1 E | 83 86.4 71.4
8/30/26 - 1510 84.7 54.1 35 2.8 ESE | 121 7.7 E | 99 86.4 71.4
8/30/26 - 1500 83.6 54.1 36 5.2 S | 169 10.7 SSE | 166 86.4 71.4
8/30/26 - 1450 84.3 53.9 35 6.2 SE | 132 13.0 SSE | 162 86.4 71.4
8/30/26 - 1440 83.8 53.5 35 7.7 SE | 146 15.2 ESE | 119 86.4 71.4
8/30/26 - 1430 84.0 53.5 35 5.9 SE | 132 13.4 SE | 146 86.4 71.4
8/30/26 - 1420 84.0 53.2 35 6.7 SE | 133 15.6 SE | 128 86.4 71.4
8/30/26 - 1410 84.0 52.6 34 4.9 SSE | 163 11.1 SSE | 150 86.4 71.4
8/30/26 - 1400 83.7 52.1 34 7.6 SE | 129 13.2 SE | 130 86.4 71.4
8/30/26 - 1350 83.7 52.1 34 7.9 SE | 138 15.3 SSE | 167 86.4 71.4
8/30/26 - 1340 82.9 52.2 35 8.2 E | 83 13.9 SE | 130 86.4 71.4
8/30/26 - 1330 83.2 52.2 34 5.9 ESE | 115 12.2 SE | 133 86.4 71.4
8/30/26 - 1320 83.8 52.4 34 5.8 ESE | 118 12.1 E | 91 86.4 71.4
8/30/26 - 1310 83.0 52.6 35 6.3 SSE | 151 14.8 SSE | 147 86.4 71.4
8/30/26 - 1300 82.5 52.9 36 7.9 SE | 135 15.6 SSE | 156 86.4 71.4
8/30/26 - 1250 82.6 52.8 36 5.8 ESE | 110 13.2 SE | 128 86.4 71.4
8/30/26 - 1240 82.8 52.6 35 8.0 ESE | 120 14.4 ESE | 121 86.4 71.4
8/30/26 - 1230 83.1 52.7 35 5.4 E | 96 11.6 ESE | 120 86.4 71.4
8/30/26 - 1220 84.2 49.8 30 4.7 ESE | 118 11.8 SE | 133 86.4 71.4
8/30/26 - 1210 83.0 51.1 33 5.2 SE | 142 12.4 SSE | 154 86.4 71.4
8/30/26 - 1200 85.2 47.5 27 6.2 SSW | 212 13.3 SSE | 161 86.4 71.4
8/30/26 - 1150 85.5 45.4 25 6.1 NNW | 348 14.4 NNW | 332 86.4 71.4
8/30/26 - 1140 84.8 44.8 25 6.2 N | 356 15.2 N | 0 86.3 71.4
8/30/26 - 1130 85.5 44.9 24 5.8 NW | 324 14.1 NNW | 327 86.3 71.4
8/30/26 - 1120 85.5 45.0 24 7.1 NW | 310 17.2 NW | 318 86.2 71.4
8/30/26 - 1110 85.2 45.1 25 7.8 NW | 318 15.9 NNW | 341 86.1 71.4
8/30/26 - 1100 83.9 44.8 25 9.7 NW | 325 18.3 NW | 320 85.1 71.4
8/30/26 - 1050 84.1 44.9 25 11.1 NNW | 333 16.8 NNW | 337 85.1 71.4
8/30/26 - 1040 84.0 44.9 25 9.3 NW | 323 16.2 NW | 326 85.1 71.4
Max 87.0 54.4 41 22.7 - 31.6 - 88.0 71.8
Avg 76.9 41.4 28 15.2 - 22.7 - - -
Min 70.2 21.6 16 2.5 - 7.7 - 71.9 69.9